Time;durP1;ratioP1;P1;durP2;ratioP2;P2;SDS_P1;SDS_P2;PMS_P1;PMS_P2;Temp;Humidity;BMP_temperature;BMP_pressure;BME280_temperature;BME280_humidity;BME280_pressure;Samples;Min_cycle;Max_cycle;Signal;HPM_P1;HPM_P2
2022/10/03 00:01:23;;;;;;;;;;;;;;;11.93;nan;101372.69;4936504;28;19922;-65
2022/10/03 00:04:07;;;;;;;;;;;;;;;11.89;nan;101382.72;4922973;29;19930;-65
2022/10/03 00:07:03;;;;;;;13.15;7.32;;;;;;;11.88;nan;101389.00;4933290;28;19930;-65
2022/10/03 00:09:34;;;;;;;16.13;8.05;;;;;;;11.88;nan;101383.69;4934554;28;20035;-65
2022/10/03 00:12:34;;;;;;;11.70;6.25;;;;;;;11.88;nan;101386.34;4931625;28;20167;-65
2022/10/03 00:15:07;;;;;;;12.95;5.93;;;;;;;11.88;nan;101391.66;4926386;28;20055;-65
2022/10/03 00:18:01;;;;;;;10.23;5.82;;;;;;;11.87;nan;101390.81;4929203;28;20417;-65
2022/10/03 00:20:32;;;;;;;10.70;5.63;;;;;;;11.98;nan;101387.19;4919576;29;20735;-65
2022/10/03 00:23:13;;;;;;;8.37;5.67;;;;;;;12.05;nan;101390.13;4924823;28;20423;-65
2022/10/03 00:25:48;;;;;;;6.07;4.70;;;;;;;12.12;nan;101396.53;4915769;29;20497;-68
2022/10/03 00:28:26;;;;;;;6.43;4.23;;;;;;;12.16;nan;101389.16;4939837;28;20418;-65
2022/10/03 00:30:57;;;;;;;5.32;3.78;;;;;;;12.19;nan;101399.47;4933524;29;20504;-65
2022/10/03 00:33:53;;;;;;;5.10;3.38;;;;;;;12.20;nan;101401.94;4926013;29;20406;-65
2022/10/03 00:36:46;;;;;;;5.15;3.40;;;;;;;12.24;nan;101397.22;4913042;29;20410;-66
2022/10/03 00:39:26;;;;;;;4.47;3.20;;;;;;;12.22;nan;101397.34;4937971;28;20395;-67
2022/10/03 00:42:19;;;;;;;4.88;3.45;;;;;;;12.22;nan;101392.03;4927925;28;20678;-67
2022/10/03 00:44:47;;;;;;;5.07;3.40;;;;;;;12.20;nan;101401.94;4934841;28;20423;-68
2022/10/03 00:47:39;;;;;;;4.55;3.20;;;;;;;12.18;nan;101405.72;4929991;28;20822;-68
2022/10/03 00:50:18;;;;;;;5.35;2.92;;;;;;;12.14;nan;101409.66;4923508;28;20417;-68
2022/10/03 00:52:50;;;;;;;;;;;;;;;11.97;nan;101404.06;4922928;28;20064;-65
2022/10/03 00:55:25;;;;;;;;;;;;;;;11.85;nan;101411.28;4924397;28;20367;-65
2022/10/03 00:57:58;;;;;;;;;;;;;;;11.74;nan;101402.63;4937547;28;19930;-65
2022/10/03 01:00:28;;;;;;;;;;;;;;;11.60;nan;101409.97;4931057;29;19969;-66
2022/10/03 01:02:59;;;;;;;;;;;;;;;11.43;nan;101398.25;4937642;28;19918;-65
2022/10/03 01:05:34;;;;;;;;;;;;;;;11.26;nan;101405.03;4947884;28;19930;-66
2022/10/03 01:08:10;;;;;;;;;;;;;;;11.10;nan;101409.16;4930824;28;19926;-66
2022/10/03 01:10:39;;;;;;;;;;;;;;;10.94;nan;101407.84;4917476;29;19949;-65
2022/10/03 01:13:22;;;;;;;;;;;;;;;10.81;nan;101404.56;4937487;28;20352;-65
2022/10/03 01:15:48;;;;;;;;;;;;;;;10.67;nan;101413.69;4951002;28;20005;-65
2022/10/03 01:18:58;;;;;;;3.90;2.65;;;;;;;10.53;nan;101424.59;4941644;28;19966;-66
2022/10/03 01:21:41;;;;;;;3.53;2.35;;;;;;;10.41;nan;101422.00;4912158;28;20047;-65
2022/10/03 01:24:31;;;;;;;4.72;2.70;;;;;;;10.31;nan;101423.75;4919689;28;20044;-66
2022/10/03 01:27:07;;;;;;;3.40;2.25;;;;;;;10.22;nan;101416.53;4934636;28;20489;-65
2022/10/03 01:33:06;;;;;;;4.70;3.58;;;;;;;10.14;nan;101437.50;4948527;28;20481;-68
2022/10/03 01:35:41;;;;;;;5.25;3.58;;;;;;;10.03;nan;101434.91;4886945;29;20031;-65
2022/10/03 01:38:20;;;;;;;4.75;3.67;;;;;;;9.92;nan;101439.25;4930525;28;20042;-66
2022/10/03 01:41:01;;;;;;;4.53;2.85;;;;;;;9.86;nan;101441.56;4923028;29;20099;-65
2022/10/03 01:43:41;;;;;;;3.63;2.70;;;;;;;9.87;nan;101438.81;4934846;28;20419;-68
2022/10/03 01:46:37;;;;;;;3.22;2.50;;;;;;;9.75;nan;101447.72;4934793;28;20070;-66
2022/10/03 01:49:29;;;;;;;3.20;2.30;;;;;;;9.67;nan;101444.84;4946685;28;20035;-65
2022/10/03 01:52:13;;;;;;;6.13;2.92;;;;;;;9.63;nan;101453.97;4934321;28;20043;-65
2022/10/03 01:54:38;;;;;;;6.38;4.90;;;;;;;9.64;nan;101461.78;4942709;28;20370;-65
2022/10/03 01:57:25;;;;;;;7.63;5.20;;;;;;;9.73;nan;101460.22;4927923;29;20407;-68
2022/10/03 02:00:01;;;;;;;5.13;3.67;;;;;;;9.66;nan;101462.50;4943458;28;20031;-65
2022/10/03 02:02:38;;;;;;;4.80;3.25;;;;;;;9.59;nan;101461.31;4928971;28;20044;-65
2022/10/03 02:05:41;;;;;;;4.65;3.05;;;;;;;9.51;nan;101455.78;4943204;28;20051;-65
2022/10/03 02:08:16;;;;;;;;;;;;;;;9.39;nan;101454.97;4912477;29;20123;-66
2022/10/03 02:10:52;;;;;;;3.60;2.75;;;;;;;9.31;nan;101460.00;4940567;28;19969;-65
2022/10/03 02:13:27;;;;;;;4.95;3.78;;;;;;;9.28;nan;101457.63;4927582;29;20044;-65
2022/10/03 02:15:58;;;;;;;6.93;4.80;;;;;;;9.24;nan;101464.09;4938506;28;20032;-65
2022/10/03 02:18:45;;;;;;;6.18;4.07;;;;;;;9.22;nan;101455.44;4934433;28;20073;-65
2022/10/03 02:21:25;;;;;;;6.15;3.80;;;;;;;9.19;nan;101456.53;4937171;28;20051;-65
2022/10/03 02:24:13;;;;;;;5.47;3.40;;;;;;;9.12;nan;101458.81;4933492;28;20055;-67
2022/10/03 02:26:45;;;;;;;3.90;2.90;;;;;;;9.06;nan;101459.28;4890546;28;20047;-68
2022/10/03 02:29:27;;;;;;;6.15;4.22;;;;;;;8.98;nan;101461.66;4946299;28;20504;-67
2022/10/03 02:32:07;;;;;;;6.28;4.05;;;;;;;8.95;nan;101458.44;4937782;28;20062;-65
2022/10/03 02:34:56;;;;;;;4.43;3.58;;;;;;;8.89;nan;101455.31;4934807;28;20408;-66
2022/10/03 02:37:39;;;;;;;4.78;3.22;;;;;;;8.83;nan;101449.69;4941701;29;20039;-65
2022/10/03 02:40:32;;;;;;;5.28;3.20;;;;;;;8.75;nan;101452.03;4945868;28;20106;-68
2022/10/03 02:43:26;;;;;;;5.07;3.15;;;;;;;8.70;nan;101455.06;4935304;28;20305;-67
2022/10/03 02:46:09;;;;;;;6.25;4.20;;;;;;;8.67;nan;101450.81;4933955;29;20032;-66
2022/10/03 02:48:49;;;;;;;5.32;3.90;;;;;;;8.70;nan;101453.25;4931299;28;20512;-68
2022/10/03 02:51:38;;;;;;;5.10;3.85;;;;;;;8.67;nan;101450.81;4946530;28;20695;-68
2022/10/03 02:54:53;;;;;;;6.53;5.10;;;;;;;8.63;nan;101445.94;4933028;28;20531;-67
2022/10/03 02:57:38;;;;;;;5.40;3.90;;;;;;;8.57;nan;101449.03;4934180;28;20040;-65
2022/10/03 03:00:12;;;;;;;6.10;4.20;;;;;;;8.50;nan;101446.84;4920333;29;20437;-68
2022/10/03 03:02:46;;;;;;;5.70;3.97;;;;;;;8.46;nan;101448.03;4935199;28;20645;-67
2022/10/03 03:05:33;;;;;;;5.38;3.53;;;;;;;8.43;nan;101455.31;4930477;29;20448;-67
2022/10/03 03:08:32;;;;;;;6.15;4.00;;;;;;;8.39;nan;101451.19;4933873;28;20067;-68
2022/10/03 03:11:24;;;;;;;5.93;3.67;;;;;;;8.34;nan;101453.34;4922410;28;20497;-67
2022/10/03 03:14:15;;;;;;;5.07;3.50;;;;;;;8.25;nan;101455.72;4941471;28;20042;-67
2022/10/03 03:16:59;;;;;;;6.38;3.80;;;;;;;8.21;nan;101454.25;4920752;28;20046;-66
2022/10/03 03:19:57;;;;;;;5.75;3.53;;;;;;;8.17;nan;101468.59;4950495;28;20449;-67
2022/10/03 03:22:52;;;;;;;6.38;3.58;;;;;;;8.11;nan;101471.72;4928480;28;20027;-67
2022/10/03 03:25:30;;;;;;;4.78;3.80;;;;;;;8.08;nan;101474.56;4926525;28;20052;-67
2022/10/03 03:28:01;;;;;;;5.20;3.80;;;;;;;8.02;nan;101475.00;4941486;28;20035;-67
2022/10/03 03:30:40;;;;;;;5.07;3.17;;;;;;;7.98;nan;101479.66;4932665;28;20421;-67
2022/10/03 03:33:11;;;;;;;4.13;3.05;;;;;;;7.94;nan;101482.66;4933203;29;20130;-67
2022/10/03 03:35:57;;;;;;;5.45;3.35;;;;;;;7.91;nan;101480.22;4939848;28;20038;-67
2022/10/03 03:38:29;;;;;;;4.07;3.13;;;;;;;7.89;nan;101482.97;4932989;28;20114;-67
2022/10/03 03:41:05;;;;;;;4.90;3.20;;;;;;;7.83;nan;101481.59;4937448;28;20409;-67
2022/10/03 03:43:54;;;;;;;5.93;3.15;;;;;;;7.80;nan;101479.19;4935203;28;20034;-67
2022/10/03 03:47:09;;;;;;;4.55;3.05;;;;;;;7.77;nan;101479.44;4942926;28;20050;-67
2022/10/03 03:50:05;;;;;;;4.85;3.33;;;;;;;7.72;nan;101472.78;4939502;29;20568;-67
2022/10/03 03:52:48;;;;;;;5.55;4.13;;;;;;;7.67;nan;101475.75;4929381;28;20511;-68
2022/10/03 03:55:26;;;;;;;5.18;3.65;;;;;;;7.65;nan;101481.16;4935350;28;20493;-67
2022/10/03 03:58:04;;;;;;;6.75;4.60;;;;;;;7.60;nan;101480.63;4943521;28;20048;-67
2022/10/03 04:00:56;;;;;;;7.15;4.65;;;;;;;7.59;nan;101491.25;4932348;29;20032;-68
2022/10/03 04:03:30;;;;;;;8.60;4.88;;;;;;;7.56;nan;101488.84;4940073;28;20051;-67
2022/10/03 04:06:06;;;;;;;6.43;4.38;;;;;;;7.51;nan;101493.56;4929419;28;20048;-68
2022/10/03 04:09:00;;;;;;;6.00;4.25;;;;;;;7.49;nan;101490.25;4929021;28;20521;-67
2022/10/03 04:11:48;;;;;;;5.22;3.60;;;;;;;7.44;nan;101485.28;4935017;28;20394;-67
2022/10/03 04:14:39;;;;;;;5.13;3.47;;;;;;;7.39;nan;101488.25;4942928;28;20040;-68
2022/10/03 04:20:03;;;;;;;4.70;3.65;;;;;;;7.32;nan;101492.25;4942153;28;20049;-67
2022/10/03 04:22:56;;;;;;;7.47;5.13;;;;;;;7.27;nan;101502.25;4942534;28;20043;-67
2022/10/03 04:25:45;;;;;;;6.68;4.53;;;;;;;7.24;nan;101494.56;4936121;29;20573;-68
2022/10/03 04:28:34;;;;;;;5.78;4.10;;;;;;;7.21;nan;101510.56;4914247;28;20243;-67
2022/10/03 04:31:27;;;;;;;5.20;3.60;;;;;;;7.19;nan;101512.47;4931694;28;20417;-67
2022/10/03 04:34:11;;;;;;;5.53;4.47;;;;;;;7.15;nan;101514.47;4934631;29;20043;-67
2022/10/03 04:37:18;;;;;;;5.38;4.18;;;;;;;7.15;nan;101517.09;4939824;29;20046;-67
2022/10/03 04:39:51;;;;;;;5.63;3.92;;;;;;;7.13;nan;101510.25;4889614;29;20066;-67
2022/10/03 04:42:52;;;;;;;6.05;4.22;;;;;;;7.09;nan;101508.78;4936790;28;20031;-67
2022/10/03 04:45:45;;;;;;;5.50;4.03;;;;;;;7.05;nan;101513.41;4882514;29;20112;-67
2022/10/03 04:48:17;;;;;;;6.03;3.95;;;;;;;7.00;nan;101513.72;4932602;28;20052;-68
2022/10/03 04:51:18;;;;;;;5.85;4.07;;;;;;;6.96;nan;101508.75;4931323;28;20370;-68
2022/10/03 04:53:57;;;;;;;5.75;3.80;;;;;;;6.95;nan;101510.56;4914479;29;20119;-67
2022/10/03 04:56:44;;;;;;;5.43;3.90;;;;;;;6.96;nan;101511.38;4935653;28;20051;-68
2022/10/03 04:59:43;;;;;;;6.13;3.42;;;;;;;6.92;nan;101513.41;4926030;29;20040;-68
2022/10/03 05:02:45;;;;;;;5.53;3.42;;;;;;;6.86;nan;101508.53;4937314;28;20032;-68
2022/10/03 05:05:37;;;;;;;4.47;2.83;;;;;;;6.81;nan;101508.00;4927286;29;20058;-67
2022/10/03 05:08:16;;;;;;;5.50;3.67;;;;;;;6.77;nan;101511.81;4936135;28;20060;-68
2022/10/03 05:10:55;;;;;;;4.18;2.80;;;;;;;6.72;nan;101511.25;4947081;28;20092;-67
2022/10/03 05:13:31;;;;;;;4.35;3.13;;;;;;;6.71;nan;101509.59;4939269;28;20047;-67
2022/10/03 05:16:16;;;;;;;4.43;3.20;;;;;;;6.67;nan;101519.44;4926021;28;20035;-67
2022/10/03 05:19:08;;;;;;;4.30;2.72;;;;;;;6.63;nan;101525.88;4938907;28;20039;-67
2022/10/03 05:21:41;;;;;;;3.63;2.50;;;;;;;6.58;nan;101528.81;4920751;29;20043;-68
2022/10/03 05:24:14;;;;;;;4.13;2.88;;;;;;;6.54;nan;101524.69;4930181;28;20055;-67
2022/10/03 05:26:50;;;;;;;4.32;3.10;;;;;;;6.52;nan;101526.56;4932920;28;20513;-67
2022/10/03 05:29:40;;;;;;;4.68;3.08;;;;;;;6.48;nan;101530.31;4923317;28;20043;-67
2022/10/03 05:32:19;;;;;;;3.95;2.72;;;;;;;6.45;nan;101533.16;4918465;28;20446;-67
2022/10/03 05:35:05;;;;;;;4.78;3.40;;;;;;;6.42;nan;101538.63;4926444;28;20047;-67
2022/10/03 05:37:57;;;;;;;5.15;3.80;;;;;;;6.42;nan;101543.88;4940473;28;20289;-67
2022/10/03 05:40:25;;;;;;;4.93;3.80;;;;;;;6.39;nan;101541.47;4926899;28;20222;-67
2022/10/03 05:42:54;;;;;;;4.80;3.33;;;;;;;6.38;nan;101542.38;4924387;28;20054;-68
2022/10/03 05:45:41;;;;;;;4.07;3.10;;;;;;;6.37;nan;101546.81;4921180;28;20051;-67
2022/10/03 05:48:23;;;;;;;4.03;2.75;;;;;;;6.36;nan;101547.75;4917936;28;20421;-67
2022/10/03 05:51:15;;;;;;;5.55;3.60;;;;;;;6.35;nan;101556.56;4915541;29;20493;-67
2022/10/03 05:54:35;;;;;;;6.57;4.22;;;;;;;6.37;nan;101557.31;4937653;28;20075;-67
2022/10/03 05:57:48;;;;;;;6.65;4.55;;;;;;;6.42;nan;101556.19;4937525;28;20488;-67
2022/10/03 06:00:20;;;;;;;6.03;4.18;;;;;;;6.44;nan;101563.03;4926283;28;20516;-67
2022/10/03 06:03:13;;;;;;;5.57;3.50;;;;;;;6.48;nan;101566.28;4923378;28;20040;-67
2022/10/03 06:06:09;;;;;;;4.43;3.53;;;;;;;6.54;nan;101579.03;4933687;28;20043;-67
2022/10/03 06:08:44;;;;;;;4.35;3.20;;;;;;;6.58;nan;101572.63;4924388;29;20554;-67
2022/10/03 06:11:46;;;;;;;4.30;2.95;;;;;;;6.63;nan;101573.19;4942169;28;20031;-67
2022/10/03 06:14:32;;;;;;;4.38;3.20;;;;;;;6.73;nan;101584.75;4928422;28;20039;-68
2022/10/03 06:17:24;;;;;;;4.15;3.00;;;;;;;6.93;nan;101578.16;4933497;28;20042;-68
2022/10/03 06:19:56;;;;;;;4.85;3.50;;;;;;;7.21;nan;101582.44;4935847;28;20110;-67
2022/10/03 06:22:41;;;;;;;3.72;2.92;;;;;;;7.48;nan;101586.75;4928516;28;20605;-67
2022/10/03 06:25:25;;;;;;;4.45;3.17;;;;;;;7.71;nan;101590.44;4925915;28;20449;-67
2022/10/03 06:28:23;;;;;;;4.25;3.17;;;;;;;8.00;nan;101598.91;4923956;28;20044;-67
2022/10/03 06:31:28;;;;;;;3.55;2.55;;;;;;;8.31;nan;101601.97;4922321;28;20039;-67
2022/10/03 06:34:07;;;;;;;;;;;;;;;8.52;nan;101598.78;4918791;29;20409;-66
2022/10/03 06:37:00;;;;;;;3.17;2.58;;;;;;;8.79;nan;101606.44;4933727;28;19927;-67
2022/10/03 06:39:47;;;;;;;3.13;2.08;;;;;;;9.16;nan;101606.34;4941941;28;20046;-67
2022/10/03 06:42:29;;;;;;;;;;;;;;;9.48;nan;101611.81;4920521;28;20055;-67
2022/10/03 06:45:10;;;;;;;;;;;;;;;9.62;nan;101616.03;4914904;29;19937;-67
2022/10/03 06:48:00;;;;;;;4.00;2.80;;;;;;;9.62;nan;101608.09;4925683;29;19922;-66
2022/10/03 06:50:45;;;;;;;4.20;3.28;;;;;;;9.51;nan;101608.91;4920828;29;20054;-67
2022/10/03 06:53:32;;;;;;;6.32;3.08;;;;;;;9.35;nan;101611.91;4914598;29;20064;-66
2022/10/03 06:56:16;;;;;;;14.13;4.53;;;;;;;9.24;nan;101614.53;4915945;28;20071;-66
2022/10/03 06:58:58;;;;;;;;;;;;;;;9.08;nan;101618.31;4925033;28;20050;-66
2022/10/03 07:01:42;;;;;;;20.15;4.32;;;;;;;8.99;nan;101613.75;4935144;28;19949;-66
2022/10/03 07:04:31;;;;;;;17.13;3.67;;;;;;;8.99;nan;101618.19;4924085;29;20067;-67
2022/10/03 07:07:12;;;;;;;4.45;3.60;;;;;;;9.07;nan;101621.91;4937952;29;20179;-66
2022/10/03 07:10:16;;;;;;;5.15;3.63;;;;;;;9.23;nan;101613.69;4944415;28;20086;-66
2022/10/03 07:12:56;;;;;;;6.50;4.15;;;;;;;9.33;nan;101612.03;4929631;28;20043;-66
2022/10/03 07:15:51;;;;;;;4.32;3.38;;;;;;;9.51;nan;101608.91;4927226;28;20477;-66
2022/10/03 07:18:35;;;;;;;;;;;;;;;9.69;nan;101620.72;4943497;28;20123;-66
2022/10/03 07:21:21;;;;;;;7.22;6.25;;;;;;;9.87;nan;101617.59;4930484;28;19973;-66
2022/10/03 07:24:18;;;;;;;6.53;5.82;;;;;;;9.94;nan;101619.66;4926119;28;20036;-66
2022/10/03 07:27:15;;;;;;;5.40;4.85;;;;;;;10.09;nan;101622.03;4924478;28;20767;-66
2022/10/03 07:30:03;;;;;;;5.00;4.20;;;;;;;10.22;nan;101625.38;4924249;29;20541;-66
2022/10/03 07:32:57;;;;;;;5.40;4.50;;;;;;;10.42;nan;101626.47;4922469;29;20043;-66
2022/10/03 07:38:58;;;;;;;5.40;4.05;;;;;;;10.84;nan;101630.06;4933062;28;20058;-67
2022/10/03 07:42:01;;;;;;;5.00;4.50;;;;;;;11.12;nan;101643.63;4928216;28;21160;-66
2022/10/03 07:45:11;;;;;;;6.65;5.18;;;;;;;11.22;nan;101635.75;4947399;28;21009;-66
2022/10/03 07:47:51;;;;;;;6.00;4.60;;;;;;;11.25;nan;101641.66;4917049;28;20127;-66
2022/10/03 07:50:40;;;;;;;8.10;5.97;;;;;;;11.30;nan;101651.84;4924976;28;20087;-66
2022/10/03 07:53:14;;;;;;;8.15;5.93;;;;;;;11.36;nan;101645.19;4935189;28;20035;-66
2022/10/03 07:55:49;;;;;;;9.52;6.32;;;;;;;11.48;nan;101646.81;4933131;28;20385;-66
2022/10/03 07:58:32;;;;;;;17.42;9.20;;;;;;;11.57;nan;101653.97;4948588;28;20058;-66
2022/10/03 08:01:26;;;;;;;14.52;9.73;;;;;;;11.71;nan;101659.91;4938350;28;20462;-66
2022/10/03 08:04:22;;;;;;;11.27;7.78;;;;;;;12.05;nan;101655.22;4919164;29;20070;-66
2022/10/03 08:07:25;;;;;;;10.80;7.78;;;;;;;12.52;nan;101658.97;4934531;28;20412;-66
2022/10/03 08:10:04;;;;;;;12.55;7.82;;;;;;;13.18;nan;101654.84;4923005;29;20425;-66
2022/10/03 08:12:51;;;;;;;8.43;6.32;;;;;;;13.95;nan;101651.19;4940399;28;20528;-66
2022/10/03 08:15:37;;;;;;;9.00;5.38;;;;;;;15.05;nan;101652.88;4918475;29;20200;-67
2022/10/03 08:18:33;;;;;;;6.70;4.60;;;;;;;15.85;nan;101660.81;4933934;29;20420;-67
2022/10/03 08:21:00;;;;;;;5.80;3.80;;;;;;;16.52;nan;101660.09;4922065;28;20032;-67
2022/10/03 08:24:07;;;;;;;6.47;4.00;;;;;;;17.36;nan;101660.84;4927836;28;20940;-67
2022/10/03 08:26:54;;;;;;;6.43;4.30;;;;;;;17.69;nan;101658.13;4926618;29;20127;-67
2022/10/03 08:29:56;;;;;;;5.03;3.50;;;;;;;17.98;nan;101666.41;4924699;28;20044;-67
2022/10/03 08:32:45;;;;;;;6.15;3.70;;;;;;;18.47;nan;101673.38;4925490;29;20266;-67
2022/10/03 08:35:34;;;;;;;4.82;3.38;;;;;;;18.98;nan;101667.56;4933999;28;20679;-67
2022/10/03 08:38:18;;;;;;;5.38;3.97;;;;;;;19.09;nan;101664.44;4924479;28;20062;-67
2022/10/03 08:40:52;;;;;;;7.55;4.57;;;;;;;19.17;nan;101661.72;4934711;28;20177;-67
2022/10/03 08:43:47;;;;;;;6.82;4.80;;;;;;;18.78;nan;101661.84;4918009;29;20139;-67
2022/10/03 08:46:37;;;;;;;6.07;4.60;;;;;;;18.08;nan;101660.84;4929697;28;20039;-67
2022/10/03 08:49:37;;;;;;;6.97;4.80;;;;;;;18.30;nan;101656.56;4922059;29;20032;-67
2022/10/03 08:52:12;;;;;;;10.05;5.93;;;;;;;18.87;nan;101656.25;4931158;28;20520;-67
2022/10/03 08:55:02;;;;;;;8.57;5.25;;;;;;;19.79;nan;101666.00;4930024;28;20118;-67
2022/10/03 08:57:51;;;;;;;7.60;4.40;;;;;;;20.73;nan;101652.69;4924745;29;20524;-67
2022/10/03 09:00:38;;;;;;;21.50;4.32;;;;;;;21.84;nan;101654.84;4925687;28;20040;-67
2022/10/03 09:03:23;;;;;;;45.10;5.18;;;;;;;22.66;nan;101647.72;4920632;29;20567;-67
2022/10/03 09:06:25;;;;;;;7.20;4.40;;;;;;;23.18;nan;101639.91;4934965;28;20036;-67
2022/10/03 09:09:15;;;;;;;4.55;2.97;;;;;;;23.61;nan;101642.13;4929053;29;20074;-67
2022/10/03 09:12:05;;;;;;;5.65;3.30;;;;;;;23.65;nan;101644.22;4925265;28;20036;-67
2022/10/03 09:14:44;;;;;;;6.03;3.28;;;;;;;24.10;nan;101644.31;4919886;29;20067;-67
2022/10/03 09:17:28;;;;;;;10.18;3.97;;;;;;;23.99;nan;101650.38;4935868;29;20455;-67
2022/10/03 09:20:26;;;;;;;7.18;3.83;;;;;;;24.32;nan;101650.22;4934473;28;20131;-67
2022/10/03 09:23:21;;;;;;;7.22;3.38;;;;;;;24.60;nan;101649.06;4929766;28;20552;-67
2022/10/03 09:26:05;;;;;;;7.95;4.50;;;;;;;24.36;nan;101653.34;4934745;29;20421;-67
2022/10/03 09:28:38;;;;;;;4.35;3.08;;;;;;;24.69;nan;101658.56;4933739;28;20464;-67
2022/10/03 09:31:22;;;;;;;8.52;4.45;;;;;;;25.16;nan;101656.34;4934449;28;20062;-67
2022/10/03 09:34:11;;;;;;;6.50;3.28;;;;;;;25.48;nan;101658.16;4918338;28;20036;-67
2022/10/03 09:36:39;;;;;;;6.95;3.97;;;;;;;25.26;nan;101664.00;4925104;28;20039;-66
2022/10/03 09:39:31;;;;;;;7.88;4.00;;;;;;;24.61;nan;101660.72;4914648;28;20047;-66
2022/10/03 09:42:17;;;;;;;5.00;2.88;;;;;;;24.01;nan;101660.97;4921824;28;20039;-66
2022/10/03 09:45:20;;;;;;;5.88;3.00;;;;;;;24.61;nan;101663.41;4915075;29;20055;-66
2022/10/03 09:48:34;;;;;;;4.32;2.60;;;;;;;25.05;nan;101657.06;4922862;28;20032;-66
2022/10/03 09:51:08;;;;;;;6.82;3.50;;;;;;;25.61;nan;101656.16;4874100;29;20041;-66
2022/10/03 09:53:47;;;;;;;4.40;2.30;;;;;;;25.81;nan;101660.53;4919761;29;20421;-66
2022/10/03 09:56:18;;;;;;;3.20;1.80;;;;;;;26.19;nan;101670.31;4914381;28;20800;-66
2022/10/03 09:59:22;;;;;;;8.25;3.20;;;;;;;24.12;nan;101671.09;4932947;28;20077;-66
2022/10/03 10:02:09;;;;;;;5.78;3.60;;;;;;;21.77;nan;101662.06;4920835;29;20032;-66
2022/10/03 10:05:17;;;;;;;7.13;4.10;;;;;;;20.53;nan;101657.84;4924528;28;20047;-66
2022/10/03 10:08:17;;;;;;;5.70;3.50;;;;;;;22.89;nan;101652.75;4922493;28;20048;-66
2022/10/03 10:11:03;;;;;;;7.47;3.23;;;;;;;24.12;nan;101646.78;4882923;29;20055;-65
2022/10/03 10:13:59;;;;;;;6.90;3.05;;;;;;;25.43;nan;101656.13;4913697;29;20126;-66
2022/10/03 10:16:46;;;;;;;5.43;2.30;;;;;;;25.88;nan;101657.78;4914994;29;20500;-66
2022/10/03 10:19:22;;;;;;;5.38;2.70;;;;;;;26.95;nan;101659.88;4919105;28;20083;-66
2022/10/03 10:22:18;;;;;;;6.30;3.40;;;;;;;27.36;nan;101658.19;4916257;28;20040;-66
2022/10/03 10:25:05;;;;;;;4.72;2.63;;;;;;;25.57;nan;101654.94;4919780;29;20540;-66
2022/10/03 10:28:13;;;;;;;6.75;3.92;;;;;;;23.41;nan;101650.28;4916676;29;20075;-66
2022/10/03 10:31:09;;;;;;;5.65;2.80;;;;;;;23.88;nan;101654.56;4906566;29;20047;-66
2022/10/03 10:34:12;;;;;;;5.57;2.70;;;;;;;24.79;nan;101652.69;4926785;29;20050;-66
2022/10/03 10:37:06;;;;;;;3.55;2.05;;;;;;;25.76;nan;101647.66;4916983;29;20618;-66
2022/10/03 10:39:48;;;;;;;3.40;1.80;;;;;;;26.64;nan;101648.25;4920392;29;20478;-66
2022/10/03 10:42:38;;;;;;;3.03;1.50;;;;;;;27.01;nan;101643.50;4935689;28;20431;-66
2022/10/03 10:45:23;;;;;;;;;;;;;;;27.00;nan;101638.28;4924542;29;20040;-66
2022/10/03 10:48:00;;;;;;;4.28;2.10;;;;;;;25.85;nan;101642.78;4927665;28;19965;-66
2022/10/03 10:50:49;;;;;;;5.35;2.58;;;;;;;24.44;nan;101636.03;4921893;28;20855;-66
2022/10/03 10:53:52;;;;;;;5.03;2.65;;;;;;;24.56;nan;101637.84;4918980;29;20063;-66
2022/10/03 10:56:41;;;;;;;5.88;2.30;;;;;;;24.06;nan;101639.53;4916595;28;20484;-67
2022/10/03 10:59:41;;;;;;;3.80;2.22;;;;;;;22.98;nan;101634.50;4932081;28;20256;-66
2022/10/03 11:02:28;;;;;;;5.88;1.80;;;;;;;23.28;nan;101634.91;4929144;28;20047;-66
2022/10/03 11:05:28;;;;;;;5.10;2.00;;;;;;;22.60;nan;101632.38;4928795;28;20039;-66
2022/10/03 11:08:31;;;;;;;4.95;1.98;;;;;;;25.15;nan;101634.94;4914527;28;20123;-66
2022/10/03 11:11:11;;;;;;;4.13;1.88;;;;;;;27.01;nan;101645.41;4923656;28;20050;-66
2022/10/03 11:14:08;;;;;;;3.42;1.75;;;;;;;26.74;nan;101642.25;4921515;29;20067;-67
2022/10/03 11:17:10;;;;;;;2.83;1.40;;;;;;;27.84;nan;101638.06;4922207;29;20492;-66
2022/10/03 11:20:13;;;;;;;3.63;1.60;;;;;;;29.07;nan;101640.38;4922014;28;20536;-66
2022/10/03 11:22:47;;;;;;;5.45;1.80;;;;;;;29.21;nan;101633.50;4914847;28;20043;-68
2022/10/03 11:25:35;;;;;;;2.90;1.50;;;;;;;29.40;nan;101626.69;4930260;28;20134;-68
2022/10/03 11:28:25;;;;;;;3.17;1.35;;;;;;;28.77;nan;101633.31;4920263;29;20043;-68
2022/10/03 11:31:17;;;;;;;2.88;1.13;;;;;;;27.32;nan;101620.63;4932934;28;20096;-68
2022/10/03 11:34:18;;;;;;;2.97;1.35;;;;;;;26.19;nan;101613.38;4892657;29;20047;-68
2022/10/03 11:37:08;;;;;;;3.35;1.00;;;;;;;25.66;nan;101608.59;4924265;28;20035;-68
2022/10/03 11:39:42;;;;;;;2.65;1.52;;;;;;;24.67;nan;101612.00;4918274;29;20048;-68
2022/10/03 11:42:42;;;;;;;5.28;1.50;;;;;;;24.38;nan;101610.66;4924739;28;20043;-68
2022/10/03 11:45:31;;;;;;;3.55;1.48;;;;;;;23.95;nan;101604.06;4924298;29;20054;-68
2022/10/03 11:48:24;;;;;;;5.80;1.88;;;;;;;23.49;nan;101613.06;4933130;28;20044;-67
2022/10/03 11:50:54;;;;;;;3.78;1.60;;;;;;;22.74;nan;101598.16;4913434;28;20526;-67
2022/10/03 11:53:43;;;;;;;3.47;1.40;;;;;;;21.93;nan;101598.94;4924854;29;20079;-66
2022/10/03 11:56:15;;;;;;;5.15;1.67;;;;;;;21.09;nan;101603.38;4932981;28;20448;-67
2022/10/03 11:59:05;;;;;;;3.22;1.60;;;;;;;20.03;nan;101591.56;4927313;28;20567;-66
2022/10/03 12:01:30;;;;;;;4.47;1.77;;;;;;;19.47;nan;101598.25;4935650;28;20445;-66
2022/10/03 12:04:14;;;;;;;4.13;1.50;;;;;;;19.07;nan;101592.28;4919347;28;20059;-66
2022/10/03 12:10:14;;;;;;;4.93;1.80;;;;;;;18.57;nan;101600.88;4928633;28;20058;-66
2022/10/03 12:12:47;;;;;;;4.53;1.52;;;;;;;18.65;nan;101598.94;4920056;29;20127;-66
2022/10/03 12:15:18;;;;;;;3.45;1.60;;;;;;;18.86;nan;101595.63;4921552;28;20123;-66
2022/10/03 12:17:48;;;;;;;;;;;;;;;18.94;nan;101596.56;4926338;29;20040;-67
2022/10/03 12:20:23;;;;;;;4.63;1.90;;;;;;;19.06;nan;101590.59;4923106;28;19946;-66
2022/10/03 12:23:06;;;;;;;4.57;1.80;;;;;;;18.87;nan;101583.06;4932093;29;20058;-66
2022/10/03 12:25:35;;;;;;;3.95;1.33;;;;;;;18.86;nan;101578.72;4931858;28;20396;-66
2022/10/03 12:28:23;;;;;;;3.83;1.50;;;;;;;19.07;nan;101583.41;4922526;29;20501;-67
2022/10/03 12:31:05;;;;;;;3.05;1.50;;;;;;;19.22;nan;101573.53;4924673;28;20130;-67
2022/10/03 12:33:47;;;;;;;4.82;1.50;;;;;;;19.18;nan;101580.25;4929008;29;20035;-67
2022/10/03 12:36:30;;;;;;;2.85;1.20;;;;;;;19.19;nan;101573.91;4933399;28;20039;-68
2022/10/03 12:39:20;;;;;;;4.22;1.60;;;;;;;18.82;nan;101562.16;4933092;28;20042;-67
2022/10/03 12:42:07;;;;;;;3.20;1.60;;;;;;;18.63;nan;101566.13;4945611;28;20043;-67
2022/10/03 12:44:56;;;;;;;2.80;1.08;;;;;;;18.63;nan;101559.94;4944963;28;20058;-67
2022/10/03 12:47:44;;;;;;;2.80;1.50;;;;;;;18.42;nan;101558.78;4942464;28;20043;-67
2022/10/03 12:50:26;;;;;;;;;;;;;;;17.95;nan;101557.03;4934497;28;20532;-67
2022/10/03 12:53:11;;;;;;;3.17;1.45;;;;;;;17.89;nan;101554.22;4936273;28;19919;-67
2022/10/03 12:55:39;;;;;;;6.47;1.55;;;;;;;17.77;nan;101551.91;4919111;29;20630;-67
2022/10/03 12:58:13;;;;;;;3.92;1.55;;;;;;;17.60;nan;101555.66;4936784;29;20504;-67
2022/10/03 13:01:00;;;;;;;3.38;1.40;;;;;;;17.64;nan;101551.63;4927612;28;20463;-67
2022/10/03 13:03:43;;;;;;;2.55;1.20;;;;;;;17.54;nan;101551.84;4930349;28;20051;-67
2022/10/03 13:06:33;;;;;;;3.30;1.30;;;;;;;17.52;nan;101543.16;4930488;28;20039;-67
2022/10/03 13:09:04;;;;;;;;;;;;;;;17.56;nan;101541.78;4935488;28;20032;-67
2022/10/03 13:11:43;;;;;;;4.18;1.65;;;;;;;17.73;nan;101545.25;4935711;28;19978;-67
2022/10/03 13:14:20;;;;;;;6.28;1.65;;;;;;;17.87;nan;101543.69;4932640;28;20047;-67
2022/10/03 13:17:07;;;;;;;3.25;1.38;;;;;;;18.09;nan;101542.09;4932058;28;20039;-67
2022/10/03 13:19:54;;;;;;;3.47;1.23;;;;;;;18.09;nan;101543.91;4933399;28;20040;-67
2022/10/03 13:22:32;;;;;;;4.03;1.38;;;;;;;17.99;nan;101544.97;4928713;28;20453;-66
2022/10/03 13:25:06;;;;;;;3.13;1.40;;;;;;;17.85;nan;101542.19;4937813;28;20042;-67
2022/10/03 13:27:46;;;;;;;;;;;;;;;17.65;nan;101539.09;4931495;28;20059;-67
2022/10/03 13:30:17;;;;;;;7.32;2.13;;;;;;;17.40;nan;101541.88;4925372;28;19918;-67
2022/10/03 13:32:45;;;;;;;;;;;;;;;17.27;nan;101546.91;4930261;28;20349;-67